Time;durP1;ratioP1;P1;durP2;ratioP2;P2;SDS_P1;SDS_P2;PMS_P1;PMS_P2;Temp;Humidity;BMP_temperature;BMP_pressure;BME280_temperature;BME280_humidity;BME280_pressure;Samples;Min_cycle;Max_cycle;Signal;HPM_P1;HPM_P2
2022/01/19 00:01:27;;;;;;;67.00;29.60;;;4.20;99.90;;;;;;5144767;27;20042;-78
2022/01/19 00:03:53;;;;;;;72.00;31.92;;;4.20;99.90;;;;;;5121896;27;20055;-78
2022/01/19 00:06:20;;;;;;;66.28;30.48;;;4.20;99.90;;;;;;5122493;27;20051;-78
2022/01/19 00:08:46;;;;;;;72.43;32.85;;;4.10;99.90;;;;;;5116659;27;20047;-79
2022/01/19 00:11:13;;;;;;;72.25;31.85;;;4.20;99.90;;;;;;5139601;27;20062;-78
2022/01/19 00:13:39;;;;;;;70.40;29.00;;;4.20;99.90;;;;;;5119805;27;20039;-78
2022/01/19 00:16:06;;;;;;;65.55;30.20;;;4.20;99.90;;;;;;5144058;27;20069;-78
2022/01/19 00:18:33;;;;;;;64.25;29.35;;;4.20;99.90;;;;;;5128388;27;20047;-76
2022/01/19 00:20:59;;;;;;;63.70;32.08;;;4.20;99.90;;;;;;5122847;27;20055;-77
2022/01/19 00:23:26;;;;;;;62.45;32.83;;;4.20;99.90;;;;;;5130366;27;20075;-78
2022/01/19 00:25:52;;;;;;;74.85;32.00;;;4.20;99.90;;;;;;5145827;27;20043;-78
2022/01/19 00:28:19;;;;;;;67.18;32.65;;;4.20;99.90;;;;;;5130401;27;20050;-77
2022/01/19 00:30:45;;;;;;;78.15;33.33;;;4.20;99.90;;;;;;5121895;27;20060;-78
2022/01/19 00:33:13;;;;;;;70.15;33.58;;;4.20;99.90;;;;;;5127429;27;20078;-78
2022/01/19 00:35:39;;;;;;;69.40;34.33;;;4.20;99.90;;;;;;5125134;27;20051;-78
2022/01/19 00:38:06;;;;;;;77.85;36.08;;;4.20;99.90;;;;;;5115937;27;20081;-76
2022/01/19 00:40:32;;;;;;;78.03;35.20;;;4.20;99.90;;;;;;5117373;27;20433;-78
2022/01/19 00:42:59;;;;;;;72.22;35.35;;;4.20;99.90;;;;;;5149466;27;20050;-78
2022/01/19 00:45:25;;;;;;;75.93;35.90;;;4.20;99.90;;;;;;5121094;27;20586;-76
2022/01/19 00:47:52;;;;;;;71.15;36.03;;;4.20;99.90;;;;;;5124266;27;20039;-78
2022/01/19 00:50:18;;;;;;;72.03;33.97;;;4.20;99.90;;;;;;5127684;27;20047;-78
2022/01/19 00:52:45;;;;;;;75.40;36.03;;;4.20;99.90;;;;;;5119004;27;20051;-78
2022/01/19 00:55:11;;;;;;;74.22;36.67;;;4.20;99.90;;;;;;5124317;27;20808;-79
2022/01/19 00:57:38;;;;;;;82.20;39.15;;;4.20;99.90;;;;;;5123460;27;20065;-77
2022/01/19 01:00:04;;;;;;;80.32;36.22;;;4.20;99.90;;;;;;5117080;27;20055;-78
2022/01/19 01:02:31;;;;;;;84.43;39.53;;;4.10;99.90;;;;;;5130155;27;20058;-78
2022/01/19 01:04:57;;;;;;;74.78;35.03;;;4.10;99.90;;;;;;5125585;28;20050;-78
2022/01/19 01:07:24;;;;;;;87.00;37.78;;;4.20;99.90;;;;;;5125394;27;20054;-78
2022/01/19 01:09:51;;;;;;;79.68;38.47;;;4.20;99.90;;;;;;5120110;27;20053;-80
2022/01/19 01:12:23;;;;;;;81.93;38.22;;;4.20;99.90;;;;;;5117835;27;20035;-78
2022/01/19 01:20:14;;;;;;;99.68;40.72;;;4.20;99.90;;;;;;5105339;27;20549;-78
2022/01/19 01:22:40;;;;;;;103.40;38.05;;;4.20;99.90;;;;;;5122769;28;20422;-78
2022/01/19 01:25:07;;;;;;;85.63;40.72;;;4.20;99.90;;;;;;5124825;27;20488;-78
2022/01/19 01:27:33;;;;;;;92.95;37.63;;;4.20;99.90;;;;;;5133150;27;20489;-77
2022/01/19 01:30:00;;;;;;;83.85;38.63;;;4.10;99.90;;;;;;5124451;28;20043;-78
2022/01/19 01:32:26;;;;;;;78.82;35.88;;;4.10;99.90;;;;;;5124951;27;20054;-78
2022/01/19 01:34:53;;;;;;;89.00;37.90;;;4.10;99.90;;;;;;5131478;27;20054;-80
2022/01/19 01:37:19;;;;;;;73.65;35.55;;;4.10;99.90;;;;;;5120555;27;20043;-78
2022/01/19 01:39:46;;;;;;;77.50;36.45;;;4.10;99.90;;;;;;5135088;27;20047;-78
2022/01/19 01:42:12;;;;;;;80.15;36.42;;;4.10;99.90;;;;;;5128301;27;20047;-78
2022/01/19 01:44:40;;;;;;;78.05;37.03;;;4.10;99.90;;;;;;5128680;27;20054;-78
2022/01/19 01:47:07;;;;;;;73.13;34.25;;;4.00;99.90;;;;;;5123735;27;20047;-78
2022/01/19 01:49:46;;;;;;;78.93;34.55;;;4.00;99.90;;;;;;5118177;27;20130;-78
2022/01/19 01:54:56;;;;;;;79.50;36.08;;;4.10;99.90;;;;;;5118507;27;20475;-80
2022/01/19 01:57:23;;;;;;;88.43;36.05;;;4.10;99.90;;;;;;5131635;27;20046;-78
2022/01/19 01:59:49;;;;;;;76.22;35.60;;;4.00;99.90;;;;;;5121173;27;20054;-78
2022/01/19 02:02:16;;;;;;;79.15;34.90;;;4.00;99.90;;;;;;5122570;27;20046;-78
2022/01/19 02:04:42;;;;;;;75.95;34.28;;;4.00;99.90;;;;;;5125643;27;20069;-77
2022/01/19 02:07:31;;;;;;;63.50;30.25;;;4.00;99.90;;;;;;5121100;27;20047;-77
2022/01/19 02:10:00;;;;;;;68.60;31.95;;;4.00;99.90;;;;;;5154175;27;20042;-79
2022/01/19 02:23:32;;;;;;;70.70;31.70;;;4.00;99.90;;;;;;5131522;27;20051;-78
2022/01/19 02:26:00;;;;;;;54.45;28.73;;;4.00;99.90;;;;;;5127845;27;20125;-80
2022/01/19 02:40:08;;;;;;;67.97;27.67;;;4.10;99.90;;;;;;5128375;27;20050;-77
2022/01/19 02:42:26;;;;;;;69.47;27.50;;;4.10;99.90;;;;;;5126193;27;20120;-77
2022/01/19 02:50:21;;;;;;;63.83;26.52;;;4.20;99.90;;;;;;5119590;27;20035;-78
2022/01/19 02:52:47;;;;;;;66.82;27.55;;;4.20;99.90;;;;;;5133881;27;20047;-78
2022/01/19 02:55:14;;;;;;;65.13;24.58;;;4.20;99.90;;;;;;5123287;27;20054;-78
2022/01/19 02:57:42;;;;;;;61.40;26.30;;;4.20;99.90;;;;;;5116883;27;20062;-77
2022/01/19 03:11:04;;;;;;;61.20;26.10;;;4.20;99.90;;;;;;5112823;28;20051;-78
2022/01/19 03:13:31;;;;;;;61.25;25.65;;;4.20;99.90;;;;;;5132235;27;20055;-78
2022/01/19 03:15:57;;;;;;;49.92;23.02;;;4.30;99.90;;;;;;5113710;27;20085;-78
2022/01/19 03:18:24;;;;;;;64.85;27.63;;;4.20;99.90;;;;;;5112223;28;20059;-78
2022/01/19 03:20:50;;;;;;;52.17;23.73;;;4.20;99.90;;;;;;5127628;27;20379;-77
2022/01/19 03:23:20;;;;;;;46.53;24.88;;;4.20;99.90;;;;;;5122830;27;20055;-77
2022/01/19 03:25:47;;;;;;;62.03;25.98;;;4.20;99.90;;;;;;5131918;27;20078;-77
2022/01/19 03:28:13;;;;;;;51.80;25.27;;;4.20;99.90;;;;;;5121591;27;20047;-78
2022/01/19 03:30:40;;;;;;;59.28;27.33;;;4.20;99.90;;;;;;5126596;27;20058;-78
2022/01/19 03:33:06;;;;;;;59.10;27.23;;;4.20;99.90;;;;;;5122031;27;20055;-78
2022/01/19 03:35:33;;;;;;;51.30;24.63;;;4.20;99.90;;;;;;5116262;27;20371;-77
2022/01/19 03:37:59;;;;;;;61.20;27.33;;;4.10;99.90;;;;;;5128319;27;20055;-77
2022/01/19 03:40:26;;;;;;;71.88;28.85;;;4.10;99.90;;;;;;5123217;27;20066;-78
2022/01/19 03:42:52;;;;;;;71.80;26.52;;;4.10;99.90;;;;;;5101479;27;20475;-77
2022/01/19 03:45:19;;;;;;;53.55;25.90;;;4.10;99.90;;;;;;5091786;28;20048;-77
2022/01/19 03:47:51;;;;;;;53.03;26.25;;;4.10;99.90;;;;;;5091986;28;20059;-77
2022/01/19 03:50:18;;;;;;;55.67;27.27;;;4.00;99.90;;;;;;5091401;28;20059;-77
2022/01/19 03:52:44;;;;;;;65.20;29.80;;;3.90;99.90;;;;;;5100505;28;20054;-77
2022/01/19 03:55:11;;;;;;;56.03;26.80;;;3.90;99.90;;;;;;5098397;28;20052;-78
2022/01/19 03:57:38;;;;;;;60.03;28.15;;;3.90;99.90;;;;;;5110646;28;20051;-77
2022/01/19 04:00:04;;;;;;;72.85;32.65;;;3.90;99.90;;;;;;5108646;28;20510;-78
2022/01/19 04:02:31;;;;;;;72.47;31.40;;;3.90;99.90;;;;;;5098752;28;20475;-77
2022/01/19 04:05:03;;;;;;;65.30;29.45;;;3.90;99.90;;;;;;5104652;28;20387;-76
2022/01/19 04:07:29;;;;;;;65.97;31.88;;;3.90;99.90;;;;;;5097081;28;20051;-77
2022/01/19 04:09:56;;;;;;;55.65;30.80;;;3.90;99.90;;;;;;5099440;28;20052;-76
2022/01/19 04:12:41;;;;;;;70.57;32.90;;;3.90;99.90;;;;;;5103844;28;20054;-77
2022/01/19 04:15:08;;;;;;;62.00;29.40;;;3.90;99.90;;;;;;5093352;28;20047;-79
2022/01/19 04:17:36;;;;;;;71.75;31.20;;;3.90;99.90;;;;;;5102949;28;20081;-76
2022/01/19 04:20:02;;;;;;;79.70;32.95;;;3.80;99.90;;;;;;5107357;28;20044;-77
2022/01/19 04:22:29;;;;;;;63.40;32.35;;;3.90;99.90;;;;;;5098008;28;20062;-77
2022/01/19 04:24:55;;;;;;;75.60;33.83;;;3.90;99.90;;;;;;5106796;28;20043;-76
2022/01/19 04:27:34;;;;;;;57.28;31.13;;;3.90;99.90;;;;;;5103935;28;20048;-78
2022/01/19 04:30:05;;;;;;;68.43;31.23;;;3.90;99.90;;;;;;5091647;28;20070;-77
2022/01/19 04:32:38;;;;;;;62.97;26.98;;;3.90;99.90;;;;;;5091441;28;20145;-79
2022/01/19 04:35:08;;;;;;;54.03;29.70;;;3.80;99.90;;;;;;5091772;28;20055;-77
2022/01/19 04:37:50;;;;;;;72.20;30.20;;;3.80;99.90;;;;;;5097487;28;20054;-78
2022/01/19 04:54:32;;;;;;;69.93;30.63;;;3.70;99.90;;;;;;5153311;27;20051;-76
2022/01/19 05:02:47;;;;;;;57.00;30.02;;;3.70;99.90;;;;;;5114897;27;20042;-78
2022/01/19 05:05:22;;;;;;;66.30;31.50;;;3.70;99.90;;;;;;5125554;27;20493;-78
2022/01/19 05:07:57;;;;;;;66.95;33.03;;;3.70;99.90;;;;;;5143165;27;20065;-78
2022/01/19 05:15:57;;;;;;;63.42;33.08;;;3.70;99.90;;;;;;5117918;27;20402;-76
2022/01/19 05:18:24;;;;;;;64.28;29.85;;;3.70;99.90;;;;;;5136709;27;20050;-77
2022/01/19 05:20:50;;;;;;;75.57;34.22;;;3.80;99.90;;;;;;5149634;27;20043;-78
2022/01/19 05:23:17;;;;;;;68.75;33.03;;;3.70;99.90;;;;;;5128997;27;20047;-78
2022/01/19 05:25:44;;;;;;;61.83;31.52;;;3.80;99.90;;;;;;5119376;27;20100;-77
2022/01/19 05:28:10;;;;;;;75.15;33.42;;;3.80;99.90;;;;;;5120138;27;20047;-76
2022/01/19 05:30:37;;;;;;;62.78;31.33;;;3.70;99.90;;;;;;5129294;27;21096;-77
2022/01/19 05:33:03;;;;;;;74.05;31.55;;;3.80;99.90;;;;;;5118740;27;20054;-78
2022/01/19 05:35:30;;;;;;;77.38;33.10;;;3.80;99.90;;;;;;5131135;27;20051;-76
2022/01/19 05:37:56;;;;;;;61.25;29.13;;;3.80;99.90;;;;;;5122003;27;20046;-78
2022/01/19 05:40:23;;;;;;;69.10;30.98;;;3.80;99.90;;;;;;5120095;27;20418;-78
2022/01/19 05:42:50;;;;;;;63.28;31.38;;;3.80;99.90;;;;;;5118211;27;20051;-78
2022/01/19 05:45:17;;;;;;;69.72;34.40;;;3.80;99.90;;;;;;5137206;27;20052;-78
2022/01/19 05:47:45;;;;;;;79.25;33.72;;;3.80;99.90;;;;;;5150534;27;20043;-76
2022/01/19 05:50:12;;;;;;;61.63;32.90;;;3.80;99.90;;;;;;5124676;27;20049;-76
2022/01/19 05:52:38;;;;;;;80.82;35.15;;;3.90;99.90;;;;;;5147171;27;20058;-78
2022/01/19 05:55:05;;;;;;;73.57;33.83;;;3.80;99.90;;;;;;5132563;27;20055;-77
2022/01/19 05:57:32;;;;;;;67.85;32.67;;;3.90;99.90;;;;;;5124032;27;20061;-77
2022/01/19 05:59:59;;;;;;;63.10;33.28;;;3.90;99.90;;;;;;5124430;27;20537;-77
2022/01/19 06:02:25;;;;;;;62.40;30.83;;;3.90;99.90;;;;;;5137063;27;20504;-78
2022/01/19 06:04:52;;;;;;;67.60;32.60;;;3.90;99.90;;;;;;5118549;27;20058;-78
2022/01/19 06:07:18;;;;;;;59.22;33.20;;;3.90;99.90;;;;;;5126405;27;20047;-79
2022/01/19 06:10:01;;;;;;;62.83;32.45;;;3.90;99.90;;;;;;5140002;27;20055;-77
2022/01/19 06:12:27;;;;;;;74.18;33.20;;;3.90;99.90;;;;;;5127475;27;20058;-79
2022/01/19 06:14:54;;;;;;;65.93;33.75;;;3.90;99.90;;;;;;5133008;27;20066;-77
2022/01/19 06:17:20;;;;;;;72.05;37.40;;;3.90;99.90;;;;;;5131228;27;20051;-78
2022/01/19 06:19:48;;;;;;;68.85;34.55;;;3.90;99.90;;;;;;5130107;27;20051;-77
2022/01/19 06:22:14;;;;;;;66.13;32.20;;;3.90;99.90;;;;;;5134127;27;20047;-77
2022/01/19 06:24:41;;;;;;;66.78;34.75;;;3.90;99.90;;;;;;5129440;27;20062;-77
2022/01/19 06:27:07;;;;;;;70.78;35.80;;;3.90;99.90;;;;;;5149916;27;20054;-76
2022/01/19 06:29:34;;;;;;;78.00;36.95;;;3.90;99.90;;;;;;5134708;27;20043;-77
2022/01/19 06:32:01;;;;;;;71.68;33.47;;;3.90;99.90;;;;;;5133958;27;20039;-77
2022/01/19 06:34:27;;;;;;;72.18;35.45;;;3.80;99.90;;;;;;5134598;27;20055;-76
2022/01/19 06:36:54;;;;;;;67.88;37.03;;;3.90;99.90;;;;;;5134172;27;20065;-78
2022/01/19 06:39:20;;;;;;;67.80;35.88;;;3.90;99.90;;;;;;5134513;27;20694;-79
2022/01/19 06:41:47;;;;;;;63.42;35.83;;;4.00;99.90;;;;;;5131563;27;20050;-77
2022/01/19 06:44:14;;;;;;;79.93;37.42;;;3.90;99.90;;;;;;5131552;27;20061;-78
2022/01/19 06:46:40;;;;;;;74.20;36.65;;;3.90;99.90;;;;;;5124971;27;20581;-77
2022/01/19 06:49:07;;;;;;;67.17;36.77;;;3.90;99.90;;;;;;5132021;27;20059;-78
2022/01/19 06:51:34;;;;;;;72.90;37.63;;;3.90;99.90;;;;;;5131217;27;20734;-77
2022/01/19 06:54:00;;;;;;;66.28;37.92;;;4.00;99.90;;;;;;5130234;27;20054;-78
2022/01/19 06:56:27;;;;;;;69.68;36.25;;;3.90;99.90;;;;;;5132014;27;20051;-78
2022/01/19 06:58:54;;;;;;;70.70;37.67;;;4.00;99.90;;;;;;5131751;27;20050;-78
2022/01/19 07:01:20;;;;;;;79.05;38.42;;;4.00;99.90;;;;;;5130023;27;20080;-78
2022/01/19 07:03:47;;;;;;;78.68;37.28;;;3.90;99.90;;;;;;5131298;27;20050;-77
2022/01/19 07:06:13;;;;;;;74.85;36.15;;;4.00;99.90;;;;;;5130480;27;20051;-77
2022/01/19 07:08:40;;;;;;;67.65;37.30;;;4.00;99.90;;;;;;5128987;27;20059;-77
2022/01/19 07:11:06;;;;;;;77.28;36.92;;;4.10;99.90;;;;;;5131063;27;20047;-77
2022/01/19 07:13:33;;;;;;;70.22;37.17;;;4.00;99.90;;;;;;5130133;27;20055;-76
2022/01/19 07:15:59;;;;;;;65.35;37.30;;;4.00;99.90;;;;;;5129820;27;20035;-77
2022/01/19 07:18:26;;;;;;;70.28;37.25;;;4.00;99.90;;;;;;5130447;27;20070;-78
2022/01/19 07:20:52;;;;;;;73.63;37.78;;;4.00;99.90;;;;;;5131031;27;20046;-78
2022/01/19 07:23:19;;;;;;;78.75;36.20;;;4.00;99.90;;;;;;5128625;27;20054;-78
2022/01/19 07:25:45;;;;;;;70.70;38.63;;;4.00;99.90;;;;;;5128757;27;20043;-78
2022/01/19 07:28:12;;;;;;;73.72;36.85;;;4.00;99.90;;;;;;5130020;27;20043;-78
2022/01/19 07:30:38;;;;;;;68.68;35.15;;;4.00;99.90;;;;;;5127203;27;20074;-77
2022/01/19 07:33:05;;;;;;;64.85;37.63;;;4.00;99.90;;;;;;5131221;27;20047;-78
2022/01/19 07:35:32;;;;;;;70.97;38.83;;;4.00;99.90;;;;;;5130381;27;20050;-78
2022/01/19 07:37:58;;;;;;;59.80;34.45;;;4.00;99.90;;;;;;5131413;27;20048;-76
2022/01/19 07:40:25;;;;;;;65.07;38.72;;;4.00;99.90;;;;;;5128769;27;20066;-79
2022/01/19 07:42:51;;;;;;;65.65;33.50;;;4.00;99.90;;;;;;5130371;27;20490;-77
2022/01/19 07:45:18;;;;;;;66.72;38.13;;;4.00;99.90;;;;;;5129993;27;20096;-77
2022/01/19 07:47:44;;;;;;;74.70;37.33;;;4.00;99.90;;;;;;5129347;27;20054;-78
2022/01/19 07:50:11;;;;;;;65.85;33.90;;;4.00;99.90;;;;;;5126035;27;20054;-77
2022/01/19 07:52:38;;;;;;;71.18;36.72;;;4.00;99.90;;;;;;5128367;27;20054;-77
2022/01/19 07:55:04;;;;;;;77.80;36.30;;;4.00;99.90;;;;;;5130974;27;20051;-78
2022/01/19 07:57:31;;;;;;;69.55;36.40;;;4.00;99.90;;;;;;5130280;27;20054;-78
2022/01/19 07:59:57;;;;;;;65.07;36.78;;;4.00;99.90;;;;;;5129730;27;20043;-78
2022/01/19 08:02:30;;;;;;;70.70;36.42;;;4.00;99.90;;;;;;5129573;27;20043;-78
2022/01/19 08:04:57;;;;;;;56.67;31.65;;;4.00;99.90;;;;;;5125799;27;20051;-78
2022/01/19 08:07:23;;;;;;;58.53;32.95;;;4.00;99.90;;;;;;5130047;27;20046;-78
2022/01/19 08:09:50;;;;;;;55.78;31.95;;;4.00;99.90;;;;;;5127306;27;20039;-78
2022/01/19 08:12:17;;;;;;;60.05;32.58;;;4.00;99.90;;;;;;5146862;27;20050;-78
2022/01/19 08:14:43;;;;;;;61.40;31.25;;;4.00;99.90;;;;;;5126795;27;20043;-78
2022/01/19 08:17:11;;;;;;;56.22;31.88;;;4.00;99.90;;;;;;5127393;27;20044;-78
2022/01/19 08:19:38;;;;;;;47.15;28.42;;;3.90;99.90;;;;;;5130006;27;20104;-77
2022/01/19 08:22:04;;;;;;;54.05;30.45;;;3.90;99.90;;;;;;5128656;27;20046;-78
2022/01/19 08:24:31;;;;;;;51.78;29.48;;;3.90;99.90;;;;;;5128019;27;20047;-77
2022/01/19 08:26:58;;;;;;;54.90;30.25;;;3.90;99.90;;;;;;5127780;27;20044;-76
2022/01/19 08:29:24;;;;;;;54.70;30.08;;;3.90;99.90;;;;;;5130637;27;20043;-77
2022/01/19 08:31:52;;;;;;;46.53;27.85;;;3.80;99.90;;;;;;5128810;27;20043;-77
2022/01/19 08:34:18;;;;;;;47.15;27.73;;;3.80;99.90;;;;;;5130932;27;20055;-77
2022/01/19 08:36:45;;;;;;;57.92;31.90;;;3.80;99.90;;;;;;5129498;27;20372;-77
2022/01/19 08:39:11;;;;;;;47.45;28.15;;;3.80;99.90;;;;;;5128474;27;20494;-77
2022/01/19 08:41:38;;;;;;;53.47;29.40;;;3.80;99.90;;;;;;5130938;27;20412;-77
2022/01/19 08:44:04;;;;;;;55.45;30.63;;;3.70;99.90;;;;;;5132201;27;20057;-77
2022/01/19 08:46:31;;;;;;;53.20;29.70;;;3.70;99.90;;;;;;5129635;27;20047;-78
2022/01/19 08:48:57;;;;;;;54.40;32.22;;;3.70;99.90;;;;;;5129913;27;20042;-77
2022/01/19 08:51:24;;;;;;;59.55;31.02;;;3.80;99.90;;;;;;5126959;27;20046;-77
2022/01/19 08:53:50;;;;;;;54.40;29.50;;;3.70;99.90;;;;;;5134902;27;20074;-77
2022/01/19 08:56:17;;;;;;;50.22;30.42;;;3.70;99.90;;;;;;5118665;27;20072;-77
2022/01/19 08:58:44;;;;;;;50.20;29.90;;;3.70;99.90;;;;;;5139682;27;20049;-78
2022/01/19 09:01:10;;;;;;;55.42;31.80;;;3.70;99.90;;;;;;5113470;27;20046;-78
2022/01/19 09:03:37;;;;;;;53.95;29.92;;;3.70;99.90;;;;;;5123688;27;20066;-77
2022/01/19 09:06:03;;;;;;;55.83;32.20;;;3.60;99.90;;;;;;5144199;27;20126;-77
2022/01/19 09:08:31;;;;;;;54.42;32.33;;;3.60;99.90;;;;;;5118280;27;20668;-77
2022/01/19 09:10:58;;;;;;;47.75;28.90;;;3.70;99.90;;;;;;5143097;27;20054;-77
2022/01/19 09:13:25;;;;;;;53.33;30.90;;;3.70;99.90;;;;;;5126020;27;20406;-78
2022/01/19 09:15:51;;;;;;;47.92;29.75;;;3.70;99.90;;;;;;5147382;27;20445;-78
2022/01/19 09:18:18;;;;;;;48.97;29.30;;;3.70;99.90;;;;;;5126909;27;20304;-77
2022/01/19 09:20:44;;;;;;;50.80;31.38;;;3.70;99.90;;;;;;5139657;27;20043;-77
2022/01/19 09:23:11;;;;;;;50.20;30.17;;;3.70;99.90;;;;;;5127863;27;20068;-78
2022/01/19 09:25:37;;;;;;;54.05;31.15;;;3.70;99.90;;;;;;5123421;27;20043;-79
2022/01/19 09:28:04;;;;;;;53.38;31.73;;;3.70;99.90;;;;;;5116549;27;20054;-76
2022/01/19 09:30:31;;;;;;;53.85;30.27;;;3.70;99.90;;;;;;5125516;27;20051;-77
2022/01/19 09:33:06;;;;;;;61.65;33.35;;;3.70;99.90;;;;;;5144610;27;20046;-77
2022/01/19 09:35:49;;;;;;;45.72;29.13;;;3.80;99.90;;;;;;5124081;27;20043;-78
2022/01/19 09:38:16;;;;;;;47.70;30.15;;;3.80;99.90;;;;;;5118993;27;20051;-78
2022/01/19 09:40:43;;;;;;;59.58;31.85;;;3.80;99.90;;;;;;5132990;27;20543;-78
2022/01/19 09:43:09;;;;;;;51.08;30.77;;;3.90;99.90;;;;;;5128360;27;20071;-77
2022/01/19 09:45:36;;;;;;;52.30;32.67;;;3.80;99.90;;;;;;5139459;27;20058;-79
2022/01/19 09:48:02;;;;;;;54.95;33.08;;;3.80;99.90;;;;;;5123614;27;20062;-79
2022/01/19 09:50:29;;;;;;;57.35;32.63;;;3.90;99.90;;;;;;5118796;27;20051;-78
2022/01/19 09:52:55;;;;;;;58.60;30.63;;;3.90;99.90;;;;;;5126267;27;20112;-79
2022/01/19 09:55:22;;;;;;;56.42;31.95;;;3.90;99.90;;;;;;5144157;27;20051;-79
2022/01/19 09:57:48;;;;;;;53.17;32.67;;;3.90;99.90;;;;;;5121717;27;20055;-78
2022/01/19 10:00:16;;;;;;;52.28;33.92;;;4.00;99.90;;;;;;5128312;27;20058;-78
2022/01/19 10:02:43;;;;;;;59.33;33.28;;;4.00;99.90;;;;;;5117739;27;20087;-79
2022/01/19 10:05:09;;;;;;;54.90;32.03;;;4.00;99.90;;;;;;5138509;27;20061;-78
2022/01/19 10:07:36;;;;;;;51.95;31.98;;;4.00;99.90;;;;;;5124122;27;20043;-79
2022/01/19 10:10:03;;;;;;;62.10;31.48;;;4.10;99.90;;;;;;5131776;27;20049;-78
2022/01/19 10:17:58;;;;;;;65.28;33.95;;;4.10;99.90;;;;;;5122730;27;20101;-78
2022/01/19 10:20:24;;;;;;;58.53;34.28;;;4.10;99.90;;;;;;5136978;27;20047;-77
2022/01/19 10:22:51;;;;;;;51.15;33.92;;;4.10;99.90;;;;;;5130556;27;20047;-78
2022/01/19 10:25:17;;;;;;;60.63;34.85;;;4.10;99.90;;;;;;5121661;27;20039;-78
2022/01/19 10:27:45;;;;;;;55.75;34.42;;;4.10;99.90;;;;;;5135729;27;20043;-78
2022/01/19 10:30:12;;;;;;;61.42;34.50;;;4.10;99.90;;;;;;5133760;27;20043;-78
2022/01/19 10:32:40;;;;;;;61.92;37.53;;;4.10;99.90;;;;;;5134541;27;20038;-79
2022/01/19 10:35:07;;;;;;;58.05;35.22;;;4.10;99.90;;;;;;5136432;27;20050;-78
2022/01/19 10:37:33;;;;;;;63.90;36.92;;;4.10;99.90;;;;;;5133609;27;20092;-78
2022/01/19 10:40:01;;;;;;;58.80;35.28;;;4.10;99.90;;;;;;5132101;27;20038;-79
2022/01/19 10:42:31;;;;;;;61.22;37.15;;;4.10;99.90;;;;;;5133723;27;20393;-78
2022/01/19 10:44:58;;;;;;;62.97;38.53;;;4.10;99.90;;;;;;5133574;27;20051;-79
2022/01/19 10:47:24;;;;;;;61.38;35.90;;;4.10;99.90;;;;;;5134299;27;20103;-78
2022/01/19 10:49:52;;;;;;;56.83;34.97;;;4.20;99.90;;;;;;5130806;27;20043;-78
2022/01/19 10:52:18;;;;;;;63.42;36.38;;;4.20;99.90;;;;;;5134120;27;20058;-78
2022/01/19 10:54:45;;;;;;;59.67;36.60;;;4.20;99.90;;;;;;5130024;27;20046;-78
2022/01/19 10:57:11;;;;;;;57.38;36.72;;;4.20;99.90;;;;;;5131437;27;20055;-78
2022/01/19 10:59:38;;;;;;;60.22;35.00;;;4.20;99.90;;;;;;5136008;27;20043;-79
2022/01/19 11:02:04;;;;;;;56.47;34.70;;;4.20;99.90;;;;;;5132203;27;20058;-78
2022/01/19 11:04:31;;;;;;;64.93;35.90;;;4.20;99.90;;;;;;5152830;27;20053;-78
2022/01/19 11:06:57;;;;;;;65.57;37.03;;;4.20;99.90;;;;;;5134095;27;20199;-77
2022/01/19 11:09:26;;;;;;;63.90;36.20;;;4.20;99.90;;;;;;5129741;27;20075;-78
2022/01/19 11:11:52;;;;;;;51.35;34.00;;;4.30;99.90;;;;;;5134256;27;20045;-78
2022/01/19 11:14:19;;;;;;;65.85;37.80;;;4.20;99.90;;;;;;5124585;27;20099;-79
2022/01/19 11:16:47;;;;;;;58.00;37.42;;;4.30;99.90;;;;;;5133342;27;20047;-79
2022/01/19 11:19:14;;;;;;;66.10;36.38;;;4.20;99.90;;;;;;5152744;27;20059;-78
2022/01/19 11:21:41;;;;;;;69.18;36.95;;;4.30;99.90;;;;;;5153123;27;20046;-77
2022/01/19 11:24:08;;;;;;;60.28;36.67;;;4.30;99.90;;;;;;5124856;27;20042;-78
2022/01/19 11:26:35;;;;;;;60.88;38.45;;;4.30;99.90;;;;;;5142712;27;20111;-78
2022/01/19 11:29:01;;;;;;;65.88;36.03;;;4.30;99.90;;;;;;5128592;27;20095;-78
2022/01/19 11:31:28;;;;;;;67.97;38.28;;;4.20;99.90;;;;;;5143695;27;20050;-79
2022/01/19 11:33:56;;;;;;;67.47;39.40;;;4.20;99.90;;;;;;5142125;27;20047;-78
2022/01/19 11:36:23;;;;;;;69.68;38.20;;;4.30;99.90;;;;;;5126285;27;20053;-78
2022/01/19 11:38:50;;;;;;;70.95;37.42;;;4.30;99.90;;;;;;5132377;27;20057;-78
2022/01/19 11:41:16;;;;;;;69.43;39.72;;;4.30;99.90;;;;;;5132620;27;20078;-78
2022/01/19 11:43:43;;;;;;;67.95;38.95;;;4.20;99.90;;;;;;5125783;27;20054;-78
2022/01/19 11:46:09;;;;;;;63.03;40.03;;;4.20;99.90;;;;;;5150415;27;20051;-78
2022/01/19 11:48:36;;;;;;;69.38;40.65;;;4.30;99.90;;;;;;5132197;27;20050;-78
2022/01/19 11:51:02;;;;;;;74.43;40.92;;;4.20;99.90;;;;;;5152257;27;20043;-79
2022/01/19 11:53:29;;;;;;;61.72;42.20;;;4.30;99.90;;;;;;5131892;27;20039;-79
2022/01/19 11:55:55;;;;;;;65.75;40.13;;;4.20;99.90;;;;;;5132145;27;20077;-78
2022/01/19 11:58:24;;;;;;;69.82;41.90;;;4.20;99.90;;;;;;5132227;27;20035;-78
2022/01/19 12:00:50;;;;;;;71.82;39.78;;;4.20;99.90;;;;;;5150205;27;20066;-78
2022/01/19 12:03:17;;;;;;;63.63;41.15;;;4.20;99.90;;;;;;5150445;27;20469;-79
2022/01/19 12:05:43;;;;;;;69.65;41.92;;;4.30;99.90;;;;;;5151358;27;20477;-78
2022/01/19 12:08:10;;;;;;;83.38;43.40;;;4.30;99.90;;;;;;5150786;27;20050;-78
2022/01/19 12:10:40;;;;;;;69.10;41.22;;;4.30;99.90;;;;;;5134660;27;20042;-78
2022/01/19 12:13:09;;;;;;;74.93;42.30;;;4.30;99.90;;;;;;5128701;27;20612;-77
2022/01/19 12:15:36;;;;;;;73.80;44.80;;;4.40;99.90;;;;;;5120693;27;20047;-77
2022/01/19 12:18:09;;;;;;;69.95;42.70;;;4.40;99.90;;;;;;5122786;27;20082;-77
2022/01/19 12:20:36;;;;;;;72.32;44.95;;;4.50;99.90;;;;;;5149786;27;20046;-78
2022/01/19 12:23:02;;;;;;;75.60;44.15;;;4.50;99.90;;;;;;5123931;27;20054;-78
2022/01/19 12:25:29;;;;;;;68.40;42.67;;;4.50;99.90;;;;;;5140632;27;20050;-79
2022/01/19 12:27:59;;;;;;;79.57;44.20;;;4.50;99.90;;;;;;5123959;27;20050;-79
2022/01/19 12:30:27;;;;;;;;;;;4.50;99.90;;;;;;5127558;27;20723;-79
2022/01/19 12:32:54;;;;;;;78.03;47.00;;;4.50;99.90;;;;;;5146751;27;19949;-79
2022/01/19 12:35:21;;;;;;;76.38;44.35;;;4.50;99.90;;;;;;5125608;27;20087;-79
2022/01/19 12:37:47;;;;;;;89.70;46.30;;;4.60;99.90;;;;;;5127900;27;20062;-79
2022/01/19 12:40:14;;;;;;;76.85;44.40;;;4.60;99.90;;;;;;5114969;27;20074;-79
2022/01/19 12:42:40;;;;;;;73.57;43.35;;;4.60;99.90;;;;;;5135236;27;20065;-79
2022/01/19 12:45:07;;;;;;;76.68;46.03;;;4.60;99.90;;;;;;5143894;27;20055;-79
2022/01/19 12:47:34;;;;;;;85.43;46.60;;;4.60;99.90;;;;;;5112638;27;20048;-79
2022/01/19 12:50:00;;;;;;;85.80;44.53;;;4.60;99.90;;;;;;5126776;27;20046;-79
2022/01/19 12:52:27;;;;;;;91.22;45.47;;;4.60;99.90;;;;;;5143557;27;20054;-79
2022/01/19 12:54:53;;;;;;;92.80;45.22;;;4.60;99.90;;;;;;5137846;27;20051;-80
2022/01/19 12:57:20;;;;;;;88.70;46.13;;;4.60;99.90;;;;;;5128302;27;20054;-79
2022/01/19 12:59:46;;;;;;;90.90;46.95;;;4.60;99.90;;;;;;5115112;27;20051;-78
2022/01/19 13:02:13;;;;;;;77.63;45.42;;;4.60;99.90;;;;;;5117057;27;20039;-79
2022/01/19 13:04:40;;;;;;;82.88;45.70;;;4.70;99.90;;;;;;5129627;27;20300;-79
2022/01/19 13:07:07;;;;;;;77.88;45.33;;;4.70;99.90;;;;;;5114854;27;20095;-79
2022/01/19 13:09:38;;;;;;;80.43;44.75;;;4.70;99.90;;;;;;5124448;27;20045;-79
2022/01/19 13:12:05;;;;;;;77.40;44.03;;;4.80;99.90;;;;;;5125766;27;20047;-79
2022/01/19 13:14:32;;;;;;;78.80;44.92;;;4.70;99.90;;;;;;5145518;27;20069;-79
2022/01/19 13:16:58;;;;;;;85.53;45.88;;;4.70;99.90;;;;;;5142909;27;20043;-79
2022/01/19 13:19:26;;;;;;;70.57;41.92;;;4.70;99.90;;;;;;5126487;27;20074;-78
2022/01/19 13:21:53;;;;;;;78.88;46.45;;;4.70;99.90;;;;;;5124044;27;20119;-79
2022/01/19 13:24:23;;;;;;;79.70;43.70;;;4.70;99.90;;;;;;5143204;27;20059;-78
2022/01/19 13:26:50;;;;;;;85.93;45.88;;;4.70;99.90;;;;;;5120440;27;20055;-79
2022/01/19 13:29:16;;;;;;;83.55;43.25;;;4.80;99.90;;;;;;5147404;27;20057;-77
2022/01/19 13:31:43;;;;;;;85.45;45.50;;;4.80;99.90;;;;;;5133465;27;20051;-78
2022/01/19 13:34:10;;;;;;;89.43;46.13;;;4.80;99.90;;;;;;5130428;27;20061;-78
2022/01/19 13:36:36;;;;;;;86.50;46.40;;;4.80;99.90;;;;;;5145654;27;20050;-79
2022/01/19 13:39:03;;;;;;;85.25;44.88;;;4.80;99.90;;;;;;5117065;27;20054;-78
2022/01/19 13:41:29;;;;;;;81.90;45.35;;;4.80;99.90;;;;;;5128359;27;20062;-78
2022/01/19 13:43:56;;;;;;;74.28;43.92;;;4.80;99.90;;;;;;5147597;27;20046;-78
2022/01/19 13:46:24;;;;;;;82.00;42.33;;;4.80;99.90;;;;;;5130547;27;20051;-79
2022/01/19 13:48:50;;;;;;;84.07;43.53;;;4.80;99.90;;;;;;5127079;27;20058;-78
2022/01/19 13:51:18;;;;;;;84.63;47.28;;;4.80;99.90;;;;;;5130052;27;20932;-78
2022/01/19 13:53:47;;;;;;;79.40;43.88;;;4.90;99.90;;;;;;5149781;27;20489;-78
2022/01/19 13:56:15;;;;;;;82.72;44.45;;;4.90;99.90;;;;;;5142502;27;20055;-79